sensor_id;sensor_type;location;lat;lon;timestamp;temperature;humidity
54272;DHT22;40184;53.362;5.216;2022-12-16T00:01:16;3.60;99.90
54272;DHT22;40184;53.362;5.216;2022-12-16T00:03:50;3.50;99.90
54272;DHT22;40184;53.362;5.216;2022-12-16T00:06:16;3.50;99.90
54272;DHT22;40184;53.362;5.216;2022-12-16T00:08:42;3.80;99.90
54272;DHT22;40184;53.362;5.216;2022-12-16T00:11:08;3.70;99.90
54272;DHT22;40184;53.362;5.216;2022-12-16T00:13:35;3.80;99.90
54272;DHT22;40184;53.362;5.216;2022-12-16T00:16:10;3.80;99.90
54272;DHT22;40184;53.362;5.216;2022-12-16T00:18:36;3.60;99.90
54272;DHT22;40184;53.362;5.216;2022-12-16T00:21:02;3.60;99.90
54272;DHT22;40184;53.362;5.216;2022-12-16T00:23:28;3.80;99.90
54272;DHT22;40184;53.362;5.216;2022-12-16T00:25:54;3.60;99.90
54272;DHT22;40184;53.362;5.216;2022-12-16T00:28:20;3.60;99.90
54272;DHT22;40184;53.362;5.216;2022-12-16T00:30:51;3.60;99.90
54272;DHT22;40184;53.362;5.216;2022-12-16T00:33:18;3.70;99.90
54272;DHT22;40184;53.362;5.216;2022-12-16T00:35:44;3.60;99.90
54272;DHT22;40184;53.362;5.216;2022-12-16T00:38:10;3.80;99.90
54272;DHT22;40184;53.362;5.216;2022-12-16T00:40:36;3.70;99.90
54272;DHT22;40184;53.362;5.216;2022-12-16T00:43:01;3.80;99.90
54272;DHT22;40184;53.362;5.216;2022-12-16T00:45:27;3.80;99.90
54272;DHT22;40184;53.362;5.216;2022-12-16T00:47:53;3.90;99.90
54272;DHT22;40184;53.362;5.216;2022-12-16T00:50:19;3.90;99.90
54272;DHT22;40184;53.362;5.216;2022-12-16T00:52:45;3.80;99.90
54272;DHT22;40184;53.362;5.216;2022-12-16T00:55:12;3.80;99.90
54272;DHT22;40184;53.362;5.216;2022-12-16T00:57:38;3.80;99.90
54272;DHT22;40184;53.362;5.216;2022-12-16T01:00:05;3.80;99.90
54272;DHT22;40184;53.362;5.216;2022-12-16T01:02:31;3.80;99.90
54272;DHT22;40184;53.362;5.216;2022-12-16T01:04:57;3.90;99.90
54272;DHT22;40184;53.362;5.216;2022-12-16T01:07:23;3.80;99.90
54272;DHT22;40184;53.362;5.216;2022-12-16T01:09:49;3.90;99.90
54272;DHT22;40184;53.362;5.216;2022-12-16T01:12:14;3.80;99.90
54272;DHT22;40184;53.362;5.216;2022-12-16T01:14:40;3.70;99.90
54272;DHT22;40184;53.362;5.216;2022-12-16T01:17:06;3.70;99.90
54272;DHT22;40184;53.362;5.216;2022-12-16T01:19:31;3.60;99.90
54272;DHT22;40184;53.362;5.216;2022-12-16T01:21:57;3.60;99.90
54272;DHT22;40184;53.362;5.216;2022-12-16T01:24:23;3.70;99.90
54272;DHT22;40184;53.362;5.216;2022-12-16T01:26:48;3.50;99.90
54272;DHT22;40184;53.362;5.216;2022-12-16T01:29:14;3.60;99.90
54272;DHT22;40184;53.362;5.216;2022-12-16T01:31:40;3.50;99.90
54272;DHT22;40184;53.362;5.216;2022-12-16T01:34:05;3.60;99.90
54272;DHT22;40184;53.362;5.216;2022-12-16T01:36:31;3.50;99.90
54272;DHT22;40184;53.362;5.216;2022-12-16T01:38:57;3.50;99.90
54272;DHT22;40184;53.362;5.216;2022-12-16T01:41:22;3.60;99.90
54272;DHT22;40184;53.362;5.216;2022-12-16T01:43:48;3.40;99.90
54272;DHT22;40184;53.362;5.216;2022-12-16T01:46:20;3.40;99.90
54272;DHT22;40184;53.362;5.216;2022-12-16T01:49:01;3.50;99.90
54272;DHT22;40184;53.362;5.216;2022-12-16T01:51:41;3.50;99.90
54272;DHT22;40184;53.362;5.216;2022-12-16T01:56:41;3.60;99.90
54272;DHT22;40184;53.362;5.216;2022-12-16T01:59:10;3.50;99.90
54272;DHT22;40184;53.362;5.216;2022-12-16T02:01:36;3.50;99.90
54272;DHT22;40184;53.362;5.216;2022-12-16T02:04:02;3.50;99.90
54272;DHT22;40184;53.362;5.216;2022-12-16T02:06:29;3.40;99.90
54272;DHT22;40184;53.362;5.216;2022-12-16T02:08:57;3.40;99.90
54272;DHT22;40184;53.362;5.216;2022-12-16T02:11:42;3.40;99.90
54272;DHT22;40184;53.362;5.216;2022-12-16T02:22:48;3.40;99.90
54272;DHT22;40184;53.362;5.216;2022-12-16T02:25:41;3.40;99.90
54272;DHT22;40184;53.362;5.216;2022-12-16T02:39:12;3.50;99.90
54272;DHT22;40184;53.362;5.216;2022-12-16T02:45:11;3.50;99.90
54272;DHT22;40184;53.362;5.216;2022-12-16T02:47:38;3.50;99.90
54272;DHT22;40184;53.362;5.216;2022-12-16T02:50:12;3.60;99.90
54272;DHT22;40184;53.362;5.216;2022-12-16T02:52:40;3.60;99.90
54272;DHT22;40184;53.362;5.216;2022-12-16T02:55:07;3.60;99.90
54272;DHT22;40184;53.362;5.216;2022-12-16T03:00:20;3.60;99.90
54272;DHT22;40184;53.362;5.216;2022-12-16T03:03:10;3.60;99.90
54272;DHT22;40184;53.362;5.216;2022-12-16T03:05:39;3.60;99.90
54272;DHT22;40184;53.362;5.216;2022-12-16T03:08:17;3.80;99.90
54272;DHT22;40184;53.362;5.216;2022-12-16T03:10:55;3.80;99.90
54272;DHT22;40184;53.362;5.216;2022-12-16T03:13:22;3.80;99.90
54272;DHT22;40184;53.362;5.216;2022-12-16T03:15:51;3.90;99.90
54272;DHT22;40184;53.362;5.216;2022-12-16T03:18:18;3.80;99.90
54272;DHT22;40184;53.362;5.216;2022-12-16T03:20:57;3.90;99.90
54272;DHT22;40184;53.362;5.216;2022-12-16T03:23:31;3.90;99.90
54272;DHT22;40184;53.362;5.216;2022-12-16T03:26:02;3.90;99.90
54272;DHT22;40184;53.362;5.216;2022-12-16T03:31:42;3.90;99.90
54272;DHT22;40184;53.362;5.216;2022-12-16T03:34:16;3.90;99.90
54272;DHT22;40184;53.362;5.216;2022-12-16T03:36:50;3.80;99.90
54272;DHT22;40184;53.362;5.216;2022-12-16T03:39:20;3.80;99.90
54272;DHT22;40184;53.362;5.216;2022-12-16T03:41:50;3.80;99.90
54272;DHT22;40184;53.362;5.216;2022-12-16T03:44:17;3.80;99.90
54272;DHT22;40184;53.362;5.216;2022-12-16T03:46:42;3.90;99.90
54272;DHT22;40184;53.362;5.216;2022-12-16T03:49:09;3.90;99.90
54272;DHT22;40184;53.362;5.216;2022-12-16T03:51:35;3.90;99.90
54272;DHT22;40184;53.362;5.216;2022-12-16T03:54:00;3.80;99.90
54272;DHT22;40184;53.362;5.216;2022-12-16T03:56:26;3.80;99.90
54272;DHT22;40184;53.362;5.216;2022-12-16T03:58:52;3.80;99.90
54272;DHT22;40184;53.362;5.216;2022-12-16T04:01:17;3.80;99.90
54272;DHT22;40184;53.362;5.216;2022-12-16T04:03:43;3.80;99.90
54272;DHT22;40184;53.362;5.216;2022-12-16T04:06:09;3.80;99.90
54272;DHT22;40184;53.362;5.216;2022-12-16T04:08:34;3.80;99.90
54272;DHT22;40184;53.362;5.216;2022-12-16T04:11:00;3.80;99.90
54272;DHT22;40184;53.362;5.216;2022-12-16T04:13:44;3.70;99.90
54272;DHT22;40184;53.362;5.216;2022-12-16T04:16:28;3.70;99.90
54272;DHT22;40184;53.362;5.216;2022-12-16T04:19:34;3.60;99.90
54272;DHT22;40184;53.362;5.216;2022-12-16T04:25:17;3.60;99.90
54272;DHT22;40184;53.362;5.216;2022-12-16T04:27:43;3.70;99.90
54272;DHT22;40184;53.362;5.216;2022-12-16T04:30:16;3.70;99.90
54272;DHT22;40184;53.362;5.216;2022-12-16T04:32:51;3.70;99.90
54272;DHT22;40184;53.362;5.216;2022-12-16T04:35:37;3.70;99.90
54272;DHT22;40184;53.362;5.216;2022-12-16T04:38:22;3.80;99.90
54272;DHT22;40184;53.362;5.216;2022-12-16T04:41:06;3.80;99.90
54272;DHT22;40184;53.362;5.216;2022-12-16T04:43:50;3.80;99.90
54272;DHT22;40184;53.362;5.216;2022-12-16T04:46:35;3.80;99.90
54272;DHT22;40184;53.362;5.216;2022-12-16T04:49:19;3.80;99.90
54272;DHT22;40184;53.362;5.216;2022-12-16T04:52:04;3.80;99.90
54272;DHT22;40184;53.362;5.216;2022-12-16T04:54:49;3.80;99.90
54272;DHT22;40184;53.362;5.216;2022-12-16T04:57:33;3.80;99.90
54272;DHT22;40184;53.362;5.216;2022-12-16T05:00:18;3.90;99.90
54272;DHT22;40184;53.362;5.216;2022-12-16T05:03:02;3.90;99.90
54272;DHT22;40184;53.362;5.216;2022-12-16T05:05:46;3.90;99.90
54272;DHT22;40184;53.362;5.216;2022-12-16T05:08:30;4.00;99.90
54272;DHT22;40184;53.362;5.216;2022-12-16T05:11:14;4.00;99.90
54272;DHT22;40184;53.362;5.216;2022-12-16T05:13:59;4.00;99.90
54272;DHT22;40184;53.362;5.216;2022-12-16T05:16:43;4.00;99.90
54272;DHT22;40184;53.362;5.216;2022-12-16T05:19:27;4.00;99.90
54272;DHT22;40184;53.362;5.216;2022-12-16T05:22:11;4.00;99.90
54272;DHT22;40184;53.362;5.216;2022-12-16T05:24:56;4.00;99.90
54272;DHT22;40184;53.362;5.216;2022-12-16T05:27:40;4.00;99.90
54272;DHT22;40184;53.362;5.216;2022-12-16T05:30:25;4.10;99.90
54272;DHT22;40184;53.362;5.216;2022-12-16T05:33:09;4.10;99.90
54272;DHT22;40184;53.362;5.216;2022-12-16T05:35:53;4.00;99.90
54272;DHT22;40184;53.362;5.216;2022-12-16T05:38:37;4.00;99.90
54272;DHT22;40184;53.362;5.216;2022-12-16T05:41:21;4.00;99.90
54272;DHT22;40184;53.362;5.216;2022-12-16T05:44:06;4.00;99.90
54272;DHT22;40184;53.362;5.216;2022-12-16T05:46:50;3.90;99.90
54272;DHT22;40184;53.362;5.216;2022-12-16T05:49:34;3.80;99.90
54272;DHT22;40184;53.362;5.216;2022-12-16T05:52:19;3.80;99.90
54272;DHT22;40184;53.362;5.216;2022-12-16T05:55:03;3.80;99.90
54272;DHT22;40184;53.362;5.216;2022-12-16T05:57:49;3.80;99.90
54272;DHT22;40184;53.362;5.216;2022-12-16T06:00:33;3.70;99.90
54272;DHT22;40184;53.362;5.216;2022-12-16T06:03:17;3.70;99.90
54272;DHT22;40184;53.362;5.216;2022-12-16T06:06:01;3.70;99.90
54272;DHT22;40184;53.362;5.216;2022-12-16T06:08:45;3.70;99.90
54272;DHT22;40184;53.362;5.216;2022-12-16T06:11:29;3.60;99.90
54272;DHT22;40184;53.362;5.216;2022-12-16T06:14:14;3.70;99.90
54272;DHT22;40184;53.362;5.216;2022-12-16T06:16:58;3.70;99.90
54272;DHT22;40184;53.362;5.216;2022-12-16T06:19:42;3.70;99.90
54272;DHT22;40184;53.362;5.216;2022-12-16T06:22:27;3.70;99.90
54272;DHT22;40184;53.362;5.216;2022-12-16T06:25:11;3.70;99.90
54272;DHT22;40184;53.362;5.216;2022-12-16T06:27:55;3.80;99.90
54272;DHT22;40184;53.362;5.216;2022-12-16T06:30:39;3.70;99.90
54272;DHT22;40184;53.362;5.216;2022-12-16T06:33:24;3.80;99.90
54272;DHT22;40184;53.362;5.216;2022-12-16T06:36:08;3.80;99.90
54272;DHT22;40184;53.362;5.216;2022-12-16T06:38:53;3.80;99.90
54272;DHT22;40184;53.362;5.216;2022-12-16T06:41:37;3.80;99.90
54272;DHT22;40184;53.362;5.216;2022-12-16T06:44:21;3.80;99.90
54272;DHT22;40184;53.362;5.216;2022-12-16T06:47:05;3.80;99.90
54272;DHT22;40184;53.362;5.216;2022-12-16T06:49:50;3.80;99.90
54272;DHT22;40184;53.362;5.216;2022-12-16T06:52:34;3.80;99.90
54272;DHT22;40184;53.362;5.216;2022-12-16T06:55:21;3.70;99.90
54272;DHT22;40184;53.362;5.216;2022-12-16T06:58:05;3.70;99.90
54272;DHT22;40184;53.362;5.216;2022-12-16T07:00:49;3.70;99.90
54272;DHT22;40184;53.362;5.216;2022-12-16T07:03:34;3.60;99.90
54272;DHT22;40184;53.362;5.216;2022-12-16T07:06:18;3.60;99.90
54272;DHT22;40184;53.362;5.216;2022-12-16T07:09:03;3.50;99.90
54272;DHT22;40184;53.362;5.216;2022-12-16T07:11:47;3.50;99.90
54272;DHT22;40184;53.362;5.216;2022-12-16T07:14:31;3.50;99.90
54272;DHT22;40184;53.362;5.216;2022-12-16T07:17:15;3.40;99.90
54272;DHT22;40184;53.362;5.216;2022-12-16T07:19:59;3.40;99.90
54272;DHT22;40184;53.362;5.216;2022-12-16T07:22:44;3.40;99.90
54272;DHT22;40184;53.362;5.216;2022-12-16T07:25:28;3.40;99.90
54272;DHT22;40184;53.362;5.216;2022-12-16T07:28:13;3.40;99.90
54272;DHT22;40184;53.362;5.216;2022-12-16T07:30:57;3.50;99.90
54272;DHT22;40184;53.362;5.216;2022-12-16T07:33:41;3.50;99.90
54272;DHT22;40184;53.362;5.216;2022-12-16T07:36:26;3.40;99.90
54272;DHT22;40184;53.362;5.216;2022-12-16T07:39:10;3.40;99.90
54272;DHT22;40184;53.362;5.216;2022-12-16T07:41:54;3.30;99.90
54272;DHT22;40184;53.362;5.216;2022-12-16T07:44:38;3.40;99.90
54272;DHT22;40184;53.362;5.216;2022-12-16T07:47:23;3.30;99.90
54272;DHT22;40184;53.362;5.216;2022-12-16T07:50:07;3.30;99.90
54272;DHT22;40184;53.362;5.216;2022-12-16T07:52:56;3.30;99.90
54272;DHT22;40184;53.362;5.216;2022-12-16T07:55:40;3.20;99.90
54272;DHT22;40184;53.362;5.216;2022-12-16T07:58:24;3.20;99.90
54272;DHT22;40184;53.362;5.216;2022-12-16T08:01:08;3.30;99.90
54272;DHT22;40184;53.362;5.216;2022-12-16T08:03:53;3.20;99.90
54272;DHT22;40184;53.362;5.216;2022-12-16T08:06:37;3.20;99.90
54272;DHT22;40184;53.362;5.216;2022-12-16T08:09:21;3.20;99.90
54272;DHT22;40184;53.362;5.216;2022-12-16T08:12:06;3.20;99.90
54272;DHT22;40184;53.362;5.216;2022-12-16T08:14:50;3.20;99.90
54272;DHT22;40184;53.362;5.216;2022-12-16T08:17:34;3.30;99.90
54272;DHT22;40184;53.362;5.216;2022-12-16T08:20:19;3.30;99.90
54272;DHT22;40184;53.362;5.216;2022-12-16T08:23:03;3.40;99.90
54272;DHT22;40184;53.362;5.216;2022-12-16T08:25:47;3.40;99.90
54272;DHT22;40184;53.362;5.216;2022-12-16T08:28:33;3.50;99.90
54272;DHT22;40184;53.362;5.216;2022-12-16T08:31:17;3.60;99.90
54272;DHT22;40184;53.362;5.216;2022-12-16T08:34:01;3.70;99.90
54272;DHT22;40184;53.362;5.216;2022-12-16T08:36:46;3.80;99.90
54272;DHT22;40184;53.362;5.216;2022-12-16T08:39:30;3.90;99.90
54272;DHT22;40184;53.362;5.216;2022-12-16T08:42:14;3.90;99.90
54272;DHT22;40184;53.362;5.216;2022-12-16T08:44:58;3.90;99.90
54272;DHT22;40184;53.362;5.216;2022-12-16T08:47:43;4.00;99.90
54272;DHT22;40184;53.362;5.216;2022-12-16T08:50:27;4.00;99.90
54272;DHT22;40184;53.362;5.216;2022-12-16T08:53:11;4.00;99.90
54272;DHT22;40184;53.362;5.216;2022-12-16T08:55:56;4.00;99.90
54272;DHT22;40184;53.362;5.216;2022-12-16T08:58:40;4.20;99.90
54272;DHT22;40184;53.362;5.216;2022-12-16T09:01:24;4.20;99.90
54272;DHT22;40184;53.362;5.216;2022-12-16T09:04:08;4.30;99.90
54272;DHT22;40184;53.362;5.216;2022-12-16T09:06:53;4.40;99.90
54272;DHT22;40184;53.362;5.216;2022-12-16T09:09:37;4.60;99.90
54272;DHT22;40184;53.362;5.216;2022-12-16T09:12:21;4.70;99.90
54272;DHT22;40184;53.362;5.216;2022-12-16T09:15:06;4.70;99.90
54272;DHT22;40184;53.362;5.216;2022-12-16T09:17:54;4.80;99.90
54272;DHT22;40184;53.362;5.216;2022-12-16T09:20:39;4.90;99.90
54272;DHT22;40184;53.362;5.216;2022-12-16T09:23:24;5.10;99.90
54272;DHT22;40184;53.362;5.216;2022-12-16T09:26:08;5.50;99.90
54272;DHT22;40184;53.362;5.216;2022-12-16T09:28:52;6.00;99.90
54272;DHT22;40184;53.362;5.216;2022-12-16T09:31:37;6.50;99.90
54272;DHT22;40184;53.362;5.216;2022-12-16T09:34:21;7.00;99.90
54272;DHT22;40184;53.362;5.216;2022-12-16T09:37:05;7.40;99.90
54272;DHT22;40184;53.362;5.216;2022-12-16T09:39:49;7.70;99.90
54272;DHT22;40184;53.362;5.216;2022-12-16T09:45:57;7.90;99.90
54272;DHT22;40184;53.362;5.216;2022-12-16T09:51:41;8.30;99.90
54272;DHT22;40184;53.362;5.216;2022-12-16T09:54:28;7.90;99.90
54272;DHT22;40184;53.362;5.216;2022-12-16T09:57:13;8.10;99.90
54272;DHT22;40184;53.362;5.216;2022-12-16T10:00:04;8.50;99.90
54272;DHT22;40184;53.362;5.216;2022-12-16T10:02:49;8.70;99.90
54272;DHT22;40184;53.362;5.216;2022-12-16T10:14:55;9.60;96.60
54272;DHT22;40184;53.362;5.216;2022-12-16T10:17:44;9.90;97.90
54272;DHT22;40184;53.362;5.216;2022-12-16T10:20:41;10.00;97.60
54272;DHT22;40184;53.362;5.216;2022-12-16T10:23:42;9.70;97.50
54272;DHT22;40184;53.362;5.216;2022-12-16T10:27:09;9.40;97.80
54272;DHT22;40184;53.362;5.216;2022-12-16T10:29:49;9.00;98.60
54272;DHT22;40184;53.362;5.216;2022-12-16T10:32:48;8.70;98.50
54272;DHT22;40184;53.362;5.216;2022-12-16T10:35:48;8.40;99.00
54272;DHT22;40184;53.362;5.216;2022-12-16T10:38:37;7.70;99.70
54272;DHT22;40184;53.362;5.216;2022-12-16T10:41:27;7.10;99.90
54272;DHT22;40184;53.362;5.216;2022-12-16T10:44:25;6.70;99.90
54272;DHT22;40184;53.362;5.216;2022-12-16T10:47:12;6.20;99.90
54272;DHT22;40184;53.362;5.216;2022-12-16T10:49:57;5.90;99.90
54272;DHT22;40184;53.362;5.216;2022-12-16T10:52:56;5.80;99.90
54272;DHT22;40184;53.362;5.216;2022-12-16T10:59:05;5.60;99.90
54272;DHT22;40184;53.362;5.216;2022-12-16T11:02:04;5.50;99.90
54272;DHT22;40184;53.362;5.216;2022-12-16T11:04:49;5.40;99.90
54272;DHT22;40184;53.362;5.216;2022-12-16T11:10:38;5.20;99.90
54272;DHT22;40184;53.362;5.216;2022-12-16T11:16:23;5.20;99.90
54272;DHT22;40184;53.362;5.216;2022-12-16T11:22:20;5.10;99.90
54272;DHT22;40184;53.362;5.216;2022-12-16T11:25:19;5.10;99.90
54272;DHT22;40184;53.362;5.216;2022-12-16T11:30:54;5.10;99.90
54272;DHT22;40184;53.362;5.216;2022-12-16T11:33:39;5.00;99.90
54272;DHT22;40184;53.362;5.216;2022-12-16T11:36:24;5.00;99.90
54272;DHT22;40184;53.362;5.216;2022-12-16T11:39:15;5.00;99.90
54272;DHT22;40184;53.362;5.216;2022-12-16T11:42:00;4.90;99.90
54272;DHT22;40184;53.362;5.216;2022-12-16T11:44:48;5.00;99.90
54272;DHT22;40184;53.362;5.216;2022-12-16T11:50:27;4.90;99.90
54272;DHT22;40184;53.362;5.216;2022-12-16T11:56:24;4.80;99.90
54272;DHT22;40184;53.362;5.216;2022-12-16T11:59:47;4.80;99.90
54272;DHT22;40184;53.362;5.216;2022-12-16T12:02:44;4.80;99.90
54272;DHT22;40184;53.362;5.216;2022-12-16T12:08:33;4.90;99.90
54272;DHT22;40184;53.362;5.216;2022-12-16T12:11:37;4.90;99.90
54272;DHT22;40184;53.362;5.216;2022-12-16T12:14:49;5.00;99.90
54272;DHT22;40184;53.362;5.216;2022-12-16T12:17:51;5.00;99.90
54272;DHT22;40184;53.362;5.216;2022-12-16T12:21:18;5.00;99.90
54272;DHT22;40184;53.362;5.216;2022-12-16T12:27:41;5.00;99.90
54272;DHT22;40184;53.362;5.216;2022-12-16T12:30:32;4.90;99.90
54272;DHT22;40184;53.362;5.216;2022-12-16T12:33:53;4.90;99.90
54272;DHT22;40184;53.362;5.216;2022-12-16T12:36:53;4.90;99.90
54272;DHT22;40184;53.362;5.216;2022-12-16T12:42:58;4.90;99.90
54272;DHT22;40184;53.362;5.216;2022-12-16T12:52:16;4.90;99.90
54272;DHT22;40184;53.362;5.216;2022-12-16T12:58:16;4.90;99.90
54272;DHT22;40184;53.362;5.216;2022-12-16T13:01:02;4.90;99.90
54272;DHT22;40184;53.362;5.216;2022-12-16T13:04:00;4.90;99.90
54272;DHT22;40184;53.362;5.216;2022-12-16T13:06:48;4.90;99.90
54272;DHT22;40184;53.362;5.216;2022-12-16T13:09:37;4.90;99.90
54272;DHT22;40184;53.362;5.216;2022-12-16T13:12:24;4.90;99.90
54272;DHT22;40184;53.362;5.216;2022-12-16T13:27:12;4.90;99.90
54272;DHT22;40184;53.362;5.216;2022-12-16T13:33:20;5.00;99.90
54272;DHT22;40184;53.362;5.216;2022-12-16T13:35:59;5.00;99.90
54272;DHT22;40184;53.362;5.216;2022-12-16T13:38:50;5.00;99.90
54272;DHT22;40184;53.362;5.216;2022-12-16T13:50:38;5.10;99.90
54272;DHT22;40184;53.362;5.216;2022-12-16T13:53:52;5.10;99.90
54272;DHT22;40184;53.362;5.216;2022-12-16T13:56:41;5.00;99.90
54272;DHT22;40184;53.362;5.216;2022-12-16T13:59:29;5.00;99.90
54272;DHT22;40184;53.362;5.216;2022-12-16T14:02:24;4.90;99.90
54272;DHT22;40184;53.362;5.216;2022-12-16T14:05:21;4.90;99.90
54272;DHT22;40184;53.362;5.216;2022-12-16T14:08:12;4.90;99.90
54272;DHT22;40184;53.362;5.216;2022-12-16T14:11:04;4.80;99.90
54272;DHT22;40184;53.362;5.216;2022-12-16T14:17:36;4.80;99.90
54272;DHT22;40184;53.362;5.216;2022-12-16T14:20:29;4.70;99.90
54272;DHT22;40184;53.362;5.216;2022-12-16T14:26:19;4.70;99.90
54272;DHT22;40184;53.362;5.216;2022-12-16T14:29:20;4.60;99.90
54272;DHT22;40184;53.362;5.216;2022-12-16T14:32:31;4.60;99.90
54272;DHT22;40184;53.362;5.216;2022-12-16T14:35:21;4.50;99.90
54272;DHT22;40184;53.362;5.216;2022-12-16T14:38:23;4.50;99.90
54272;DHT22;40184;53.362;5.216;2022-12-16T14:41:12;4.40;99.90
54272;DHT22;40184;53.362;5.216;2022-12-16T14:43:57;4.40;99.90
54272;DHT22;40184;53.362;5.216;2022-12-16T14:46:42;4.40;99.90
54272;DHT22;40184;53.362;5.216;2022-12-16T14:49:32;4.30;99.90
54272;DHT22;40184;53.362;5.216;2022-12-16T14:52:19;4.30;99.90
54272;DHT22;40184;53.362;5.216;2022-12-16T14:55:10;4.20;99.90
54272;DHT22;40184;53.362;5.216;2022-12-16T14:58:22;4.30;99.90
54272;DHT22;40184;53.362;5.216;2022-12-16T15:01:23;4.10;99.90
54272;DHT22;40184;53.362;5.216;2022-12-16T15:04:27;4.00;99.90
54272;DHT22;40184;53.362;5.216;2022-12-16T15:07:13;3.90;99.90
54272;DHT22;40184;53.362;5.216;2022-12-16T15:09:58;4.10;99.90
54272;DHT22;40184;53.362;5.216;2022-12-16T15:12:45;3.80;99.90
54272;DHT22;40184;53.362;5.216;2022-12-16T15:15:46;3.70;99.90
54272;DHT22;40184;53.362;5.216;2022-12-16T15:18:38;3.80;99.90
54272;DHT22;40184;53.362;5.216;2022-12-16T15:21:25;3.70;99.90
54272;DHT22;40184;53.362;5.216;2022-12-16T15:24:14;3.70;99.90
54272;DHT22;40184;53.362;5.216;2022-12-16T15:30:02;3.80;99.90
54272;DHT22;40184;53.362;5.216;2022-12-16T15:32:52;3.70;99.90
54272;DHT22;40184;53.362;5.216;2022-12-16T15:35:37;3.70;99.90
54272;DHT22;40184;53.362;5.216;2022-12-16T15:38:32;3.70;99.90
54272;DHT22;40184;53.362;5.216;2022-12-16T15:41:29;3.70;99.90
54272;DHT22;40184;53.362;5.216;2022-12-16T15:44:19;3.60;99.90
54272;DHT22;40184;53.362;5.216;2022-12-16T15:47:04;3.50;99.90
54272;DHT22;40184;53.362;5.216;2022-12-16T15:49:49;3.30;99.90
54272;DHT22;40184;53.362;5.216;2022-12-16T15:52:39;3.60;99.90
54272;DHT22;40184;53.362;5.216;2022-12-16T15:55:38;3.20;99.90
54272;DHT22;40184;53.362;5.216;2022-12-16T15:58:36;3.50;99.90
54272;DHT22;40184;53.362;5.216;2022-12-16T16:01:24;3.40;99.90
54272;DHT22;40184;53.362;5.216;2022-12-16T16:04:35;3.10;99.90
54272;DHT22;40184;53.362;5.216;2022-12-16T16:07:22;3.30;99.90
54272;DHT22;40184;53.362;5.216;2022-12-16T16:12:51;2.80;99.90
54272;DHT22;40184;53.362;5.216;2022-12-16T16:15:35;3.20;99.90
54272;DHT22;40184;53.362;5.216;2022-12-16T16:18:19;3.20;99.90
54272;DHT22;40184;53.362;5.216;2022-12-16T16:21:04;3.10;99.90
54272;DHT22;40184;53.362;5.216;2022-12-16T16:23:48;2.80;99.90
54272;DHT22;40184;53.362;5.216;2022-12-16T16:26:32;3.00;99.90
54272;DHT22;40184;53.362;5.216;2022-12-16T16:29:17;3.30;99.90
54272;DHT22;40184;53.362;5.216;2022-12-16T16:32:01;2.80;99.90
54272;DHT22;40184;53.362;5.216;2022-12-16T16:34:45;3.00;99.90
54272;DHT22;40184;53.362;5.216;2022-12-16T16:37:33;2.90;99.90
54272;DHT22;40184;53.362;5.216;2022-12-16T16:43:05;3.40;99.90
54272;DHT22;40184;53.362;5.216;2022-12-16T16:45:52;3.30;99.90
54272;DHT22;40184;53.362;5.216;2022-12-16T16:48:37;2.90;99.90
54272;DHT22;40184;53.362;5.216;2022-12-16T16:51:21;3.00;99.90
54272;DHT22;40184;53.362;5.216;2022-12-16T16:54:05;3.40;99.90
54272;DHT22;40184;53.362;5.216;2022-12-16T16:56:50;3.00;99.90
54272;DHT22;40184;53.362;5.216;2022-12-16T16:59:34;2.80;99.90
54272;DHT22;40184;53.362;5.216;2022-12-16T17:02:21;2.90;99.90
54272;DHT22;40184;53.362;5.216;2022-12-16T17:05:05;2.60;99.90
54272;DHT22;40184;53.362;5.216;2022-12-16T17:07:49;2.80;99.90
54272;DHT22;40184;53.362;5.216;2022-12-16T17:10:34;2.60;99.90
54272;DHT22;40184;53.362;5.216;2022-12-16T17:13:18;2.40;99.90
54272;DHT22;40184;53.362;5.216;2022-12-16T17:16:02;2.70;99.90
54272;DHT22;40184;53.362;5.216;2022-12-16T17:18:47;2.80;99.90
54272;DHT22;40184;53.362;5.216;2022-12-16T17:21:31;2.70;99.90
54272;DHT22;40184;53.362;5.216;2022-12-16T17:24:15;2.90;99.90
54272;DHT22;40184;53.362;5.216;2022-12-16T17:27:26;2.80;99.90
54272;DHT22;40184;53.362;5.216;2022-12-16T17:30:19;2.60;99.90
54272;DHT22;40184;53.362;5.216;2022-12-16T17:33:05;2.60;99.90
54272;DHT22;40184;53.362;5.216;2022-12-16T17:35:50;2.60;99.90
54272;DHT22;40184;53.362;5.216;2022-12-16T17:38:39;2.20;99.90
54272;DHT22;40184;53.362;5.216;2022-12-16T17:41:25;2.30;99.90
54272;DHT22;40184;53.362;5.216;2022-12-16T17:44:09;2.50;99.90
54272;DHT22;40184;53.362;5.216;2022-12-16T17:46:54;2.10;99.90
54272;DHT22;40184;53.362;5.216;2022-12-16T17:49:38;2.30;99.90
54272;DHT22;40184;53.362;5.216;2022-12-16T17:52:22;2.40;99.90
54272;DHT22;40184;53.362;5.216;2022-12-16T17:55:06;2.40;99.90
54272;DHT22;40184;53.362;5.216;2022-12-16T17:57:51;1.90;99.90
54272;DHT22;40184;53.362;5.216;2022-12-16T18:00:37;2.10;99.90
54272;DHT22;40184;53.362;5.216;2022-12-16T18:03:21;1.80;99.90
54272;DHT22;40184;53.362;5.216;2022-12-16T18:06:06;1.90;99.90
54272;DHT22;40184;53.362;5.216;2022-12-16T18:08:50;2.40;99.90
54272;DHT22;40184;53.362;5.216;2022-12-16T18:11:34;2.10;99.90
54272;DHT22;40184;53.362;5.216;2022-12-16T18:14:18;1.80;99.90
54272;DHT22;40184;53.362;5.216;2022-12-16T18:17:02;2.50;99.90
54272;DHT22;40184;53.362;5.216;2022-12-16T18:19:46;2.40;99.90
54272;DHT22;40184;53.362;5.216;2022-12-16T18:22:31;2.30;99.90
54272;DHT22;40184;53.362;5.216;2022-12-16T18:25:15;2.70;99.90
54272;DHT22;40184;53.362;5.216;2022-12-16T18:27:59;2.30;99.90
54272;DHT22;40184;53.362;5.216;2022-12-16T18:30:43;2.50;99.90
54272;DHT22;40184;53.362;5.216;2022-12-16T18:33:28;2.80;99.90
54272;DHT22;40184;53.362;5.216;2022-12-16T18:36:12;2.30;99.90
54272;DHT22;40184;53.362;5.216;2022-12-16T18:38:56;2.80;99.90
54272;DHT22;40184;53.362;5.216;2022-12-16T18:41:45;2.30;99.90
54272;DHT22;40184;53.362;5.216;2022-12-16T18:44:29;2.50;99.90
54272;DHT22;40184;53.362;5.216;2022-12-16T18:47:14;2.50;99.90
54272;DHT22;40184;53.362;5.216;2022-12-16T18:49:58;2.70;99.90
54272;DHT22;40184;53.362;5.216;2022-12-16T18:52:42;2.70;99.90
54272;DHT22;40184;53.362;5.216;2022-12-16T18:55:27;2.80;99.90
54272;DHT22;40184;53.362;5.216;2022-12-16T18:58:11;2.70;99.90
54272;DHT22;40184;53.362;5.216;2022-12-16T19:01:06;2.80;99.90
54272;DHT22;40184;53.362;5.216;2022-12-16T19:03:51;2.90;99.90
54272;DHT22;40184;53.362;5.216;2022-12-16T19:06:35;2.90;99.90
54272;DHT22;40184;53.362;5.216;2022-12-16T19:09:20;3.00;99.90
54272;DHT22;40184;53.362;5.216;2022-12-16T19:12:04;2.80;99.90
54272;DHT22;40184;53.362;5.216;2022-12-16T19:14:48;2.70;99.90
54272;DHT22;40184;53.362;5.216;2022-12-16T19:17:32;2.70;99.90
54272;DHT22;40184;53.362;5.216;2022-12-16T19:20:17;2.70;99.90
54272;DHT22;40184;53.362;5.216;2022-12-16T19:23:01;2.50;99.90
54272;DHT22;40184;53.362;5.216;2022-12-16T19:25:46;2.80;99.90
54272;DHT22;40184;53.362;5.216;2022-12-16T19:28:30;2.70;99.90
54272;DHT22;40184;53.362;5.216;2022-12-16T19:31:14;2.80;99.90
54272;DHT22;40184;53.362;5.216;2022-12-16T19:33:58;2.80;99.90
54272;DHT22;40184;53.362;5.216;2022-12-16T19:36:42;2.70;99.90